Terminal Aerodrome Forecast
Issued by NWS Amarillo, TX

Home | Current Version | Previous Version | Text Only | Print | Product List | Glossary On
Versions: 1 2 3 4 5 6 7 8 9 10 11 12 13 14 15 16
000
FTUS44 KAMA 011120
TAFAMA
TAF
KAMA 011120Z 0112/0212 17012KT P6SM SKC
     FM011500 19017G27KT P6SM FEW250
     FM020100 17012KT P6SM SCT120=

USA.gov is the U.S. government's official web portal to all federal, state and local government web resources and services.